Tiempo atmosférico en la estación meteorológica de Abenójar, Ciudad Real (718 m.)



Fecha
DESCASC
Temp. máxima en grados centígrados (hora)
DESCASC
Temp. mínima en grados centígrados (hora)
DESCASC
Temp. media en grados centígrados
DESCASC
Racha de viento máxima en m/sg (hora)
DESCASC
Velocidad máxima media en intervalos de 10 minutos(hora)
DESCASC
Precipitaciones diarias en mm
DESCASC
Precipitaciones de 00:00 a 06:00 en mm
DESCASC
Precipitaciones de 06:00 a 12:00 en mm
DESCASC
Precipitaciones de 12:00 a 18:00 en mm
DESCASC
Precipitaciones de 18:00 a 24:00 en mm
DESCASC
20-09-2020 24.3 (17:20) 12.6 (07:50) 18.4 8.61 (18:20) 5 (18:00) 0 0 0 0 0
19-09-2020 24.6 (15:30) 13.9 (05:50) 19.3 11.11 (01:40) 5.83 (01:40) 0 0 0 0 0
18-09-2020 23.9 (13:50) 15.9 (16:20) 19.9 13.61 (16:00) 6.67 (16:00) 4 0 0.2 3.8 0
17-09-2020 29.8 (16:40) 16.5 (00:00) 23.1 11.11 (20:20) 6.11 (16:10) 2 0.2 0 0 1.8
16-09-2020 34.4 (16:20) 14.6 (00:00) 24.5 7.78 (15:30) 4.17 (14:20) 0 0 0 0 0
15-09-2020 32.4 (15:40) 16.5 (00:00) 24.5 6.67 (13:40) 3.33 (13:00) 0 0 0 0 0
14-09-2020 35.9 (14:40) 17.6 (00:00) 26.8 9.72 (14:40) 5.28 (17:40) 1.2 0 0 0 1.2
13-09-2020 35.6 (17:50) 18.2 (00:00) 26.9 8.61 (13:00) 5.83 (10:00) 0 0 0 0 0
12-09-2020 36 (17:30) 17.4 (00:00) 26.7 11.39 (18:10) 4.72 (23:50) 0 0 0 0 0
11-09-2020 35.9 (16:10) 15.9 (00:00) 25.9 6.67 (06:30) 5 (07:30) 0 0 0 0 0
10-09-2020 -- (--) -- (--) -- 8.06 (18:00) 4.72 (14:20) 0 0 0 0 0
09-09-2020 -- (--) -- (--) -- 8.06 (00:10) 5.56 (00:50) 0 0 0 0 0
08-09-2020 -- (--) -- (--) -- 11.67 (09:10) 7.5 (08:40) 0 0 0 0 0
07-09-2020 -- (--) -- (--) -- 9.17 (11:20) 5.83 (11:50) 0 0 0 0 0
06-09-2020 -- (--) -- (--) -- 9.72 (15:00) 5.28 (05:20) 0 0 0 0 0
05-09-2020 -- (--) -- (--) -- 6.94 (00:10) 5 (06:00) 0 0 0 0 0
04-09-2020 -- (--) -- (--) -- 9.17 (14:40) 5.83 (14:50) 0 0 0 0 0
03-09-2020 -- (--) -- (--) -- 8.89 (23:20) 5.83 (23:50) 0 0 0 0 0
02-09-2020 -- (--) -- (--) -- 8.61 (08:40) 6.11 (08:50) 0 0 0 0 0
01-09-2020 -- (--) -- (--) -- 7.22 (19:10) 5 (01:20) 0 0 0 0 0
31-08-2020 -- (--) -- (--) -- 10.83 (08:50) 7.78 (07:10) 0 0 0 0 0
30-08-2020 -- (--) -- (--) -- 8.61 (11:00) 5 (12:00) 0 0 0 0 0
29-08-2020 -- (--) -- (--) -- 9.17 (17:00) 5.56 (01:40) 0 0 0 0 0
28-08-2020 -- (--) -- (--) -- 12.22 (18:30) 8.33 (17:40) 0 0 0 0 0
27-08-2020 -- (--) -- (--) -- 9.44 (17:50) 5.28 (18:40) 0 0 0 0 0
26-08-2020 -- (--) -- (--) -- 8.89 (18:00) 5 (19:40) 0 0 0 0 0
25-08-2020 -- (--) -- (--) -- 8.06 (16:40) 3.33 (14:40) 0 0 0 0 0
24-08-2020 -- (--) -- (--) -- 7.22 (17:10) 4.17 (06:40) 0 0 0 0 0
23-08-2020 -- (--) -- (--) -- 7.78 (16:50) 4.17 (18:20) 0 0 0 0 0

Gráficas

Temp. máximas Temp. mínimas Temp. medias Precipitaciones Rachas de viento máximas Velocidades máximas media en intervalos de 10 minutos

Datos horarios

Fecha y hora oficial Temperatura (ºC) Velocidad del viento (km/h) Dirección del viento Racha (km/h) Dirección de racha Precipitación (mm) Presión (hPa) Tendencia (hPa) Humedad (%)
2020-09-21 23:00:00 15.5 7 Sudeste 10 Sudeste 0 -- -- 58
2020-09-21 22:00:00 17.2 3 Noroeste 17 Oeste 0 -- -- 53
2020-09-21 21:00:00 19.1 8 Noroeste 17 Oeste 0 -- -- 46
2020-09-21 20:00:00 22.1 14 Oeste 27 Oeste 0 -- -- 35
2020-09-21 19:00:00 24.3 17 Oeste 27 Oeste 0 -- -- 33
2020-09-21 18:00:00 25.5 15 Oeste 30 Oeste 0 -- -- 30
2020-09-21 17:00:00 26.2 19 Oeste 30 Oeste 0 -- -- 30
2020-09-21 16:00:00 26.2 13 Noroeste 30 Noroeste 0 -- -- 31
2020-09-21 15:00:00 25 14 Oeste 26 Oeste 0 -- -- 40
2020-09-21 14:00:00 24.3 10 Oeste 24 Oeste 0 -- -- 45
2020-09-21 13:00:00 22.9 10 Oeste 22 Oeste 0 -- -- 51
2020-09-21 12:00:00 20.9 6 Oeste 12 Sudoeste 0 -- -- 59
2020-09-21 11:00:00 18.1 4 Oeste 7 Oeste 0 -- -- 75
2020-09-21 10:00:00 16.2 2 Oeste 3 Oeste 0 -- -- 87
2020-09-21 09:00:00 13.3 0 Calma 2 Oeste 0 -- -- 100
2020-09-21 08:00:00 12 2 Norte 4 Nordeste 0 -- -- 100
2020-09-21 07:00:00 11.6 3 Nordeste 4 Nordeste 0 -- -- 99
2020-09-21 06:00:00 11.7 2 Este -- -- 0 -- -- 99
2020-09-21 05:00:00 11.7 0 Calma 2 Nordeste 0 -- -- 99
2020-09-21 04:00:00 11.9 2 Este 3 Nordeste 0 -- -- 98
2020-09-21 03:00:00 12.4 3 Nordeste 5 Nordeste 0 -- -- 97
2020-09-21 02:00:00 12.7 2 Nordeste 4 Nordeste 0 -- -- 97
2020-09-21 01:00:00 13.1 2 Nordeste 3 Norte 0 -- -- 95
2020-09-21 00:00:00 14.3 3 Norte 5 Noroeste 0 -- -- 91
2020-09-20 23:00:00 15.9 3 Noroeste 11 Noroeste 0 -- -- 82
2020-09-20 22:00:00 17.1 8 Noroeste 14 Oeste 0 -- -- 74
2020-09-20 21:00:00 18.1 6 Noroeste 17 Oeste 0 -- -- 66
2020-09-20 20:00:00 20.8 13 Oeste 27 Oeste 0 -- -- 56
2020-09-20 19:00:00 22.9 17 Oeste 31 Oeste 0 -- -- 50
2020-09-20 18:00:00 23.8 18 Oeste 31 Oeste 0 -- -- 49
2020-09-20 17:00:00 23.9 18 Oeste 28 Oeste 0 -- -- 49
2020-09-20 16:00:00 23 10 Oeste 24 Oeste 0 -- -- 53
2020-09-20 15:00:00 23.4 13 Oeste 23 Oeste 0 -- -- 52
2020-09-20 14:00:00 23.1 14 Sudoeste 22 Sudoeste 0 -- -- 52
2020-09-20 13:00:00 20 11 Oeste 22 Oeste 0 -- -- 64
2020-09-20 12:00:00 19.3 11 Oeste 20 Oeste 0 -- -- 67
2020-09-20 11:00:00 17.2 9 Oeste 16 Sudoeste 0 -- -- 77
2020-09-20 10:00:00 15.6 10 Oeste 19 Sudoeste 0 -- -- 86
2020-09-20 09:00:00 14.4 5 Sudoeste 8 Sudoeste 0 -- -- 95
2020-09-20 08:00:00 12.8 3 Noroeste 9 Oeste 0 -- -- 98
2020-09-20 07:00:00 14 8 Oeste 14 Sudoeste 0 -- -- 93
2020-09-20 06:00:00 15.1 6 Sudoeste 10 Sudoeste 0 -- -- 90
2020-09-20 05:00:00 15.3 6 Sudoeste 11 Oeste 0 -- -- 95
2020-09-20 04:00:00 15 3 Sudoeste 7 Sudoeste 0 -- -- 96
2020-09-20 03:00:00 15.3 2 Sudoeste 9 Sudoeste 0 -- -- 97
2020-09-20 02:00:00 14.3 0 Calma 10 Oeste 0 -- -- 98
2020-09-20 01:00:00 14.3 2 Sudoeste 9 Sur 0 -- -- 96
2020-09-20 00:00:00 15 3 Sur 8 Sudoeste 0 -- -- 94
2020-09-19 23:00:00 16.2 3 Sudoeste 10 Sudoeste 0 -- -- 85
2020-09-19 22:00:00 16.7 3 Sudoeste 9 Oeste 0 -- -- 76
2020-09-19 21:00:00 18 6 Noroeste 19 Oeste 0 -- -- 66
2020-09-19 20:00:00 20.2 12 Oeste 28 Oeste 0 -- -- 58
2020-09-19 19:00:00 21.7 15 Oeste 30 Oeste 0 -- -- 52
2020-09-19 18:00:00 22.3 15 Oeste 30 Oeste 0 -- -- 52
2020-09-19 17:00:00 22.6 16 Oeste 29 Oeste 0 -- -- 48
2020-09-19 16:00:00 23.6 12 Oeste 30 Sudoeste 0 -- -- 52
2020-09-19 15:00:00 22.5 18 Sudoeste 34 Sudoeste 0 -- -- 51
2020-09-19 14:00:00 21.4 21 Sudoeste 36 Sudoeste 0 -- -- 53
2020-09-19 13:00:00 20.6 15 Oeste 30 Oeste 0 -- -- 60
2020-09-19 12:00:00 20.3 13 Sudoeste 31 Sudoeste 0 -- -- 60
2020-09-19 11:00:00 17.5 14 Sudoeste 33 Sudoeste 0 -- -- 79
2020-09-19 10:00:00 18.1 13 Sudoeste 30 Sudoeste 0 -- -- 74
2020-09-19 09:00:00 15.8 13 Sudoeste 22 Sur 0 -- -- 84
2020-09-19 08:00:00 14.6 6 Sudoeste 17 Sudoeste 0 -- -- 91
2020-09-19 07:00:00 14.7 7 Sudoeste 18 Sudoeste 0 -- -- 92
2020-09-19 06:00:00 14 7 Sudoeste 18 Sudoeste 0 -- -- 95
2020-09-19 05:00:00 14.3 9 Sudoeste 19 Sudoeste 0 -- -- 93
2020-09-19 04:00:00 14.9 12 Sudoeste 30 Sudoeste 0 -- -- 89
2020-09-19 03:00:00 15.4 13 Sudoeste 33 Sudoeste 0 -- -- 87
2020-09-19 02:00:00 15.3 10 Sudoeste 40 Sudoeste 0 -- -- 89
2020-09-19 01:00:00 16.3 13 Sudoeste 33 Sudoeste 0 -- -- 79
2020-09-19 00:00:00 16.7 16 Sudoeste 39 Sudoeste 0 -- -- 75
2020-09-18 23:00:00 16.6 19 Sudoeste 35 Sur 0 -- -- 76
2020-09-18 22:00:00 17.2 17 Sudoeste 30 Sur 0 -- -- 76
2020-09-18 21:00:00 17.8 17 Sudoeste 32 Sudoeste 0 -- -- 77
2020-09-18 20:00:00 19.3 11 Sudoeste 32 Sudoeste 0 -- -- 74
2020-09-18 19:00:00 20 13 Sudoeste 30 Oeste 0 -- -- 74
2020-09-18 18:00:00 19.5 13 Sudoeste 26 Oeste 0 -- -- 74
2020-09-18 17:00:00 17.9 14 Oeste 32 Sudoeste 1.6 -- -- 82
2020-09-18 16:00:00 17.7 24 Sudoeste 49 Oeste 1.6 -- -- 78
2020-09-18 15:00:00 20.3 9 Sudeste 21 Sudeste 0 -- -- 76
2020-09-18 14:00:00 23.9 6 Sudeste 21 Sur 0 -- -- 61
2020-09-18 13:00:00 21.2 9 Sur 21 Sur 0.6 -- -- 75
2020-09-18 12:00:00 18.6 10 Sudoeste 21 Sudoeste 0.2 -- -- 80
2020-09-18 11:00:00 18.8 5 Oeste 15 Sudoeste 0 -- -- 75
2020-09-18 10:00:00 19.2 5 Sudoeste 18 Sur 0 -- -- 72
2020-09-18 09:00:00 17.6 8 Sudoeste 16 Sudoeste 0 -- -- 76
2020-09-18 08:00:00 17 8 Oeste 16 Sudoeste 0 -- -- 78
2020-09-18 07:00:00 17.7 9 Sudoeste 26 Sur 0 -- -- 76
2020-09-18 06:00:00 18.1 12 Sur 28 Sur 0 -- -- 73
2020-09-18 05:00:00 18.4 14 Sur 32 Sur 0 -- -- 72
2020-09-18 04:00:00 19.1 14 Sudoeste 30 Sur 0 -- -- 69
2020-09-18 03:00:00 19.4 13 Sur 37 Sudoeste 0 -- -- 67
2020-09-18 02:00:00 19.3 12 Sur 36 Sur 0 -- -- 71
2020-09-18 01:00:00 19.1 13 Sur 30 Sudoeste 0 -- -- 75
2020-09-18 00:00:00 19.1 7 Sudeste 15 Sudeste 0 -- -- 80
2020-09-17 23:00:00 18.2 5 Oeste 9 Sudoeste 0 -- -- 88
2020-09-17 22:00:00 18.2 3 Sudoeste 21 Sudeste 0.4 -- -- 92
2020-09-17 21:00:00 18.4 4 Sudeste 40 Sudoeste 1.4 -- -- 92
2020-09-17 20:00:00 22.5 7 Noroeste 20 Sudoeste 0 -- -- 71
2020-09-17 19:00:00 25 11 Sudoeste 24 Sur 0 -- -- 49
2020-09-17 18:00:00 26.7 11 Sudoeste 35 Sur 0 -- -- 44
2020-09-17 17:00:00 28.6 15 Sur 37 Sudoeste 0 -- -- 42
2020-09-17 16:00:00 28.5 21 Sudoeste 37 Sudoeste 0 -- -- 43
2020-09-17 15:00:00 25.6 12 Sudeste 24 Sudeste 0 -- -- 51
2020-09-17 14:00:00 24.5 11 Sur 27 Sudeste 0 -- -- 54
2020-09-17 13:00:00 22.3 10 Sudeste 17 Este 0 -- -- 64
2020-09-17 12:00:00 21.3 9 Este 16 Este 0 -- -- 72
2020-09-17 11:00:00 21.2 7 Nordeste 13 Nordeste 0 -- -- 74
2020-09-17 10:00:00 20.9 5 Este 13 Nordeste 0 -- -- 76
2020-09-17 09:00:00 18.5 6 Nordeste 12 Este 0 -- -- 86
2020-09-17 08:00:00 16.5 11 Nordeste 21 Nordeste 0 -- -- 91
2020-09-17 07:00:00 16.9 13 Nordeste 21 Nordeste 0 -- -- 86
2020-09-17 06:00:00 18.3 4 Sudeste 17 Nordeste 0 -- -- 77
2020-09-17 05:00:00 18.6 14 Nordeste 20 Nordeste 0 -- -- 77
2020-09-17 04:00:00 19.1 9 Nordeste 13 Nordeste 0 -- -- 73
2020-09-17 03:00:00 19.2 4 Nordeste 32 Sur 0.2 -- -- 75
2020-09-17 02:00:00 21.8 6 Sur 18 Sur 0 -- -- 51
2020-09-17 01:00:00 21.8 9 Sur 18 Sudoeste 0 -- -- 53
2020-09-17 00:00:00 21.3 3 Este 8 Sudeste 0 -- -- 68
2020-09-16 23:00:00 22.6 3 Nordeste 13 Oeste 0 -- -- 62
2020-09-16 22:00:00 24.3 9 Oeste 14 Sudoeste 0 -- -- 41
2020-09-16 21:00:00 25.2 10 Sudoeste 19 Sudoeste 0 -- -- 39
2020-09-16 20:00:00 26.4 7 Sudoeste 21 Sudoeste 0 -- -- 35
2020-09-16 19:00:00 28.7 11 Sudoeste 24 Sur 0 -- -- 34
2020-09-16 18:00:00 29.7 11 Sudoeste 27 Sudoeste 0 -- -- 32
2020-09-16 17:00:00 31.8 11 Sudeste 23 Sur 0 -- -- 29
2020-09-16 16:00:00 33.1 8 Sudoeste 28 Sur 0 -- -- 27
2020-09-16 15:00:00 31.5 15 Sudeste 27 Sur 0 -- -- 28
2020-09-16 14:00:00 32.3 12 Sur 25 Sudeste 0 -- -- 32
2020-09-16 13:00:00 31.3 8 Sur 27 Sudoeste 0 -- -- 33
2020-09-16 12:00:00 28.9 4 Este 16 Sudeste 0 -- -- 38
2020-09-16 11:00:00 26.8 3 Sudoeste 8 Sudoeste 0 -- -- 43
2020-09-16 10:00:00 23.5 3 Sudeste 8 Oeste 0 -- -- 51
2020-09-16 09:00:00 18.5 2 Nordeste 7 Nordeste 0 -- -- 71
2020-09-16 08:00:00 15 5 Nordeste 6 Nordeste 0 -- -- 81
2020-09-16 07:00:00 14.8 0 Calma 3 Nordeste 0 -- -- 83
2020-09-16 06:00:00 15.4 2 Nordeste 3 Nordeste 0 -- -- 80
2020-09-16 05:00:00 15.9 2 Nordeste 4 Nordeste 0 -- -- 79
2020-09-16 04:00:00 16 2 Noroeste 4 Noroeste 0 -- -- 76
2020-09-16 03:00:00 16.3 2 Este 4 Nordeste 0 -- -- 74
2020-09-16 02:00:00 17 2 Este 4 Nordeste 0 -- -- 70
2020-09-16 01:00:00 18.1 0 Calma 5 Sudeste 0 -- -- 65
2020-09-16 00:00:00 18.8 2 Sudeste 4 Sudeste 0 -- -- 61
2020-09-15 23:00:00 20.1 3 Este 4 Nordeste 0 -- -- 56
2020-09-15 22:00:00 21.2 0 Calma 4 Noroeste 0 -- -- 52
2020-09-15 21:00:00 23.6 0 Calma 12 Oeste 0 -- -- 48
2020-09-15 20:00:00 27.7 6 Oeste 16 Oeste 0 -- -- 37
2020-09-15 19:00:00 30.5 4 Sur 9 Oeste 0 -- -- 33
2020-09-15 18:00:00 29.9 5 Sur 17 Noroeste 0 -- -- 36
2020-09-15 17:00:00 32.2 8 Oeste 19 Sur 0 -- -- 32
2020-09-15 16:00:00 31.5 5 Sudoeste 20 Sur 0 -- -- 36
2020-09-15 15:00:00 32 6 Sudoeste 19 Sur 0 -- -- 36
2020-09-15 14:00:00 30.6 9 Sudoeste 24 Sudeste 0 -- -- 40
2020-09-15 13:00:00 28.3 12 Sudeste 18 Sudeste 0 -- -- 47
2020-09-15 12:00:00 26.6 4 Oeste 11 Oeste 0 -- -- 53
2020-09-15 11:00:00 24.1 3 Sudoeste 8 Oeste 0 -- -- 63
2020-09-15 10:00:00 21.6 3 Sudoeste 11 Oeste 0 -- -- 76
2020-09-15 09:00:00 19 2 Sudeste 5 Sudeste 0 -- -- 89
2020-09-15 08:00:00 16.6 0 Calma 8 Oeste 0 -- -- 96
2020-09-15 07:00:00 17.7 2 Oeste 9 Sudoeste 0 -- -- 93
2020-09-15 06:00:00 18.4 3 Sudoeste 8 Oeste 0 -- -- 88
2020-09-15 05:00:00 19 5 Oeste 8 Noroeste 0 -- -- 84
2020-09-15 04:00:00 18.2 0 Calma 6 Oeste 0 -- -- 87
2020-09-15 03:00:00 18.6 2 Sudoeste 9 Sudoeste 0 -- -- 81
2020-09-15 02:00:00 18.3 3 Este 7 Sudeste 0 -- -- 85
2020-09-15 01:00:00 19.3 2 Sudoeste 6 Sur 0 -- -- 77
2020-09-15 00:00:00 19.1 3 Sudeste 6 Sudeste 0 -- -- 78
2020-09-14 23:00:00 19.8 4 Nordeste 6 Nordeste 0 -- -- 74
2020-09-14 22:00:00 20.3 4 Oeste 6 Oeste 0 -- -- 81
2020-09-14 21:00:00 20.7 2 Noroeste 17 Sudeste 0 -- -- 77
2020-09-14 20:00:00 22.1 9 Este 31 Sudoeste 1.2 -- -- 71
2020-09-14 19:00:00 27.6 12 Sudoeste 27 Sudoeste 0 -- -- 37
2020-09-14 18:00:00 31 12 Sur 30 Sur 0 -- -- 27
2020-09-14 17:00:00 30.4 13 Sur 23 Oeste 0 -- -- 28
2020-09-14 16:00:00 32.5 14 Sudoeste 28 Oeste 0 -- -- 25
2020-09-14 15:00:00 35.7 13 Sudoeste 35 Este 0 -- -- 22
2020-09-14 14:00:00 33.2 8 Sur 20 Sudeste 0 -- -- 25
2020-09-14 13:00:00 31.1 8 Sur 19 Sudeste 0 -- -- 30
2020-09-14 12:00:00 28.1 8 Nordeste 18 Nordeste 0 -- -- 36
2020-09-14 11:00:00 23.6 14 Nordeste 24 Nordeste 0 -- -- 45
2020-09-14 10:00:00 20.3 12 Nordeste 20 Norte 0 -- -- 53
2020-09-14 09:00:00 18.1 13 Nordeste 19 Nordeste 0 -- -- 59
2020-09-14 08:00:00 17.8 7 Nordeste 20 Norte 0 -- -- 59
2020-09-14 07:00:00 18.4 14 Norte 19 Norte 0 -- -- 57
2020-09-14 06:00:00 18.2 9 Norte 15 Norte 0 -- -- 59
2020-09-14 05:00:00 19.6 9 Norte 13 Nordeste 0 -- -- 51
2020-09-14 04:00:00 18.7 6 Nordeste 10 Nordeste 0 -- -- 55
2020-09-14 03:00:00 18.4 3 Sudeste 6 Sudeste 0 -- -- 54
2020-09-14 02:00:00 19.5 5 Este 6 Este 0 -- -- 49
2020-09-14 01:00:00 21.9 5 Este 13 Este 0 -- -- 41
2020-09-14 00:00:00 23.6 10 Este 21 Este 0 -- -- 36
2020-09-13 23:00:00 25.4 15 Este 28 Este 0 -- -- 33
2020-09-13 22:00:00 26.3 15 Este 23 Este 0 -- -- 31
2020-09-13 21:00:00 26 10 Nordeste 20 Nordeste 0 -- -- 29
2020-09-13 20:00:00 29.7 3 Sur 15 Sur 0 -- -- 27
2020-09-13 19:00:00 34.3 9 Sur 17 Este 0 -- -- 20
2020-09-13 18:00:00 34.7 8 Este 26 Este 0 -- -- 19
2020-09-13 17:00:00 34.4 9 Este 30 Este 0 -- -- 20
2020-09-13 16:00:00 33.5 10 Este 20 Este 0 -- -- 21
2020-09-13 15:00:00 32.5 12 Este 26 Este 0 -- -- 23
2020-09-13 14:00:00 32.8 15 Este 30 Este 0 -- -- 24
2020-09-13 13:00:00 30.9 18 Este 31 Este 0 -- -- 26
2020-09-13 12:00:00 28.8 15 Nordeste 26 Este 0 -- -- 32
2020-09-13 11:00:00 25.1 17 Este 28 Nordeste 0 -- -- 40
2020-09-13 10:00:00 21.9 21 Nordeste 28 Nordeste 0 -- -- 48
2020-09-13 09:00:00 19.8 9 Este 24 Nordeste 0 -- -- 50
2020-09-13 08:00:00 19.1 11 Nordeste 15 Norte 0 -- -- 50
2020-09-13 07:00:00 19.8 10 Nordeste 14 Nordeste 0 -- -- 44
2020-09-13 06:00:00 18.2 5 Este 8 Nordeste 0 -- -- 48
2020-09-13 05:00:00 19.3 2 Este 12 Sudeste 0 -- -- 45
2020-09-13 04:00:00 21.6 10 Sudeste 16 Este 0 -- -- 41
2020-09-13 03:00:00 22.3 9 Nordeste 18 Nordeste 0 -- -- 41
2020-09-13 02:00:00 23.3 14 Nordeste 20 Nordeste 0 -- -- 39
2020-09-13 01:00:00 24 14 Nordeste 19 Nordeste 0 -- -- 35
2020-09-13 00:00:00 24.7 15 Nordeste 23 Nordeste 0 -- -- 32
2020-09-12 23:00:00 25.6 13 Nordeste 20 Nordeste 0 -- -- 28
2020-09-12 22:00:00 25.9 13 Nordeste 15 Nordeste 0 -- -- 28
2020-09-12 21:00:00 26.9 11 Nordeste 13 Nordeste 0 -- -- 27
2020-09-12 20:00:00 29.9 8 Nordeste 19 Nordeste 0 -- -- 24
2020-09-12 19:00:00 33.2 11 Nordeste 41 Este 0 -- -- 20
2020-09-12 18:00:00 35.2 12 Este 26 Este 0 -- -- 19
2020-09-12 17:00:00 35.7 10 Este 20 Este 0 -- -- 18
2020-09-12 16:00:00 35.8 7 Norte 23 Este 0 -- -- 18
2020-09-12 15:00:00 34.5 12 Sudeste 24 Nordeste 0 -- -- 21
2020-09-12 14:00:00 33.8 10 Este 22 Este 0 -- -- 22
2020-09-12 13:00:00 31.8 9 Nordeste 19 Nordeste 0 -- -- 25
2020-09-12 12:00:00 29.5 6 Nordeste 13 Nordeste 0 -- -- 28
2020-09-12 11:00:00 26.1 9 Nordeste 20 Nordeste 0 -- -- 36
2020-09-12 10:00:00 22.5 5 Nordeste 23 Nordeste 0 -- -- 44
2020-09-12 09:00:00 19.2 17 Nordeste 23 Nordeste 0 -- -- 49
2020-09-12 08:00:00 17.8 13 Norte 22 Norte 0 -- -- 44
2020-09-12 07:00:00 18.7 9 Nordeste 20 Nordeste 0 -- -- 41
2020-09-12 06:00:00 19.2 11 Nordeste 14 Nordeste 0 -- -- 41
2020-09-12 05:00:00 17.4 3 Nordeste 10 Nordeste 0 -- -- 49
2020-09-12 04:00:00 19 7 Nordeste 12 Nordeste 0 -- -- 43
2020-09-12 03:00:00 18.4 2 Este 9 Nordeste 0 -- -- 43
2020-09-12 02:00:00 19.4 3 Este 8 Nordeste 0 -- -- 41
2020-09-12 01:00:00 20.7 5 Nordeste 15 Nordeste 0 -- -- 37
2020-09-12 00:00:00 21.4 4 Este 10 Sur 0 -- -- 34
2020-09-11 23:00:00 23.8 9 Nordeste 15 Noroeste 0 -- -- 29
2020-09-11 22:00:00 23.9 5 Este 9 Nordeste 0 -- -- 29
2020-09-11 21:00:00 26.2 7 Nordeste 9 Este 0 -- -- 26
2020-09-11 20:00:00 29.6 6 Nordeste 12 Nordeste 0 -- -- 22
2020-09-11 19:00:00 31.9 8 Norte 14 Sudoeste 0 -- -- 20
2020-09-11 18:00:00 35.2 4 Sur 24 Sudoeste 0 -- -- 17
2020-09-11 17:00:00 35 8 Sudeste 22 Sudoeste 0 -- -- 17
2020-09-11 16:00:00 35.3 10 Oeste 18 Oeste 0 -- -- 17
2020-09-11 15:00:00 34.1 12 Oeste 21 Oeste 0 -- -- 18
2020-09-11 14:00:00 33.6 5 Este 16 Sudeste 0 -- -- 19
2020-09-11 13:00:00 30.7 8 Sudeste 20 Sudeste 0 -- -- 23
2020-09-11 12:00:00 28.9 10 Sudeste 18 Sudeste 0 -- -- 28
2020-09-11 11:00:00 25 8 Este 16 Nordeste 0 -- -- 36
2020-09-11 10:00:00 21.9 5 Nordeste 11 Este 0 -- -- 38
2020-09-11 09:00:00 19.1 4 Noroeste 10 Nordeste 0 -- -- 41
2020-09-11 08:00:00 16.5 2 Sudoeste 24 Nordeste 0 -- -- 48
2020-09-11 07:00:00 18.1 16 Nordeste 24 Nordeste 0 -- -- 42
2020-09-11 06:00:00 16.6 10 Nordeste 16 Este 0 -- -- 46
2020-09-11 05:00:00 18.6 6 Nordeste 13 Nordeste 0 -- -- 42
2020-09-11 04:00:00 19.3 10 Nordeste 14 Norte 0 -- -- 39
2020-09-11 03:00:00 19.8 9 Nordeste 12 Nordeste 0 -- -- 39
2020-09-11 02:00:00 19.8 9 Nordeste 13 Nordeste 0 -- -- 39
2020-09-11 01:00:00 19.1 6 Nordeste 10 Nordeste 0 -- -- 40
2020-09-11 00:00:00 22 7 Este 16 Nordeste 0 -- -- 34
2020-09-10 23:00:00 23 12 Nordeste 19 Nordeste 0 -- -- 31
2020-09-10 22:00:00 23.9 10 Nordeste 16 Nordeste 0 -- -- 29
2020-09-10 21:00:00 25.3 6 Nordeste 15 Noroeste 0 -- -- 29
2020-09-10 20:00:00 29.7 8 Noroeste 16 Noroeste 0 -- -- 21
2020-09-10 19:00:00 31.1 9 Oeste 21 Noroeste 0 -- -- 20
2020-09-10 18:00:00 33 10 Oeste 29 Oeste 0 -- -- 18
2020-09-10 17:00:00 33.2 7 Oeste 26 Norte 0 -- -- 19
2020-09-10 16:00:00 33.1 14 Noroeste 26 Oeste 0 -- -- 20
2020-09-10 15:00:00 32.7 6 Norte 27 Oeste 0 -- -- 20
2020-09-10 14:00:00 32 8 Noroeste 24 Oeste 0 -- -- 21
2020-09-10 13:00:00 -- 7 Sudoeste 17 Oeste 0 -- -- --
2020-09-10 12:00:00 -- 7 Oeste 12 Oeste 0 -- -- --
2020-09-10 11:00:00 -- 3 Sudoeste 5 Oeste 0 -- -- --
2020-09-10 10:00:00 -- 3 Noroeste 14 Nordeste 0 -- -- --
2020-09-10 09:00:00 -- 6 Nordeste 13 Nordeste 0 -- -- --
2020-09-10 08:00:00 -- 5 Nordeste 7 Nordeste 0 -- -- --
2020-09-10 07:00:00 -- 4 Nordeste 7 Nordeste 0 -- -- --
2020-09-10 06:00:00 -- 6 Nordeste 9 Nordeste 0 -- -- --
2020-09-10 05:00:00 -- 0 Calma 10 Nordeste 0 -- -- --
2020-09-10 04:00:00 -- 6 Nordeste 9 Nordeste 0 -- -- --
2020-09-10 03:00:00 -- 7 Nordeste 9 Nordeste 0 -- -- --
2020-09-10 02:00:00 -- 2 Noroeste 6 Nordeste 0 -- -- --
2020-09-10 01:00:00 -- 3 Nordeste 9 Este 0 -- -- --
2020-09-10 00:00:00 -- 8 Este 10 Este 0 -- -- --
2020-09-09 23:00:00 -- 8 Este 12 Este 0 -- -- --
2020-09-09 22:00:00 -- 8 Nordeste 10 Nordeste 0 -- -- --
2020-09-09 21:00:00 -- 6 Nordeste 8 Nordeste 0 -- -- --
2020-09-09 20:00:00 -- 4 Norte 15 Norte 0 -- -- --
2020-09-09 19:00:00 -- 9 Noroeste 16 Norte 0 -- -- --
2020-09-09 18:00:00 -- 6 Nordeste 19 Nordeste 0 -- -- --
2020-09-09 17:00:00 -- 5 Noroeste 14 Oeste 0 -- -- --
2020-09-09 16:00:00 -- 8 Este 19 Nordeste 0 -- -- --
2020-09-09 15:00:00 -- 9 Este 17 Este 0 -- -- --
2020-09-09 14:00:00 -- 6 Norte 20 Sur 0 -- -- --
2020-09-09 13:00:00 -- 8 Sur 16 Sur 0 -- -- --
2020-09-09 12:00:00 -- 7 Este 14 Sudeste 0 -- -- --
2020-09-09 11:00:00 -- 9 Nordeste 16 Nordeste 0 -- -- --
2020-09-09 10:00:00 -- 10 Nordeste 18 Nordeste 0 -- -- --
2020-09-09 09:00:00 -- 12 Nordeste 19 Nordeste 0 -- -- --
2020-09-09 08:00:00 -- 13 Nordeste 17 Norte 0 -- -- --
2020-09-09 07:00:00 -- 13 Nordeste 19 Nordeste 0 -- -- --
2020-09-09 06:00:00 -- 6 Este 20 Este 0 -- -- --
2020-09-09 05:00:00 -- 12 Nordeste 20 Nordeste 0 -- -- --
2020-09-09 04:00:00 -- 14 Nordeste 22 Este 0 -- -- --
2020-09-09 03:00:00 -- 12 Nordeste 26 Este 0 -- -- --
2020-09-09 02:00:00 -- 13 Nordeste 26 Nordeste 0 -- -- --
2020-09-09 01:00:00 -- 20 Nordeste 29 Nordeste 0 -- -- --
2020-09-09 00:00:00 -- 20 Nordeste 36 Nordeste 0 -- -- --
2020-09-08 23:00:00 -- 22 Este 35 Este 0 -- -- --
2020-09-08 22:00:00 -- 16 Este 31 Este 0 -- -- --
2020-09-08 21:00:00 -- 14 Este 24 Nordeste 0 -- -- --
2020-09-08 20:00:00 -- 12 Nordeste 22 Nordeste 0 -- -- --
2020-09-08 19:00:00 -- 10 Nordeste 23 Nordeste 0 -- -- --
2020-09-08 18:00:00 -- 10 Nordeste 23 Nordeste 0 -- -- --
2020-09-08 17:00:00 -- 13 Nordeste 29 Este 0 -- -- --
2020-09-08 16:00:00 -- 11 Norte 26 Nordeste 0 -- -- --
2020-09-08 15:00:00 -- 8 Este 28 Sudeste 0 -- -- --
2020-09-08 14:00:00 -- 15 Este 32 Este 0 -- -- --
2020-09-08 13:00:00 -- 19 Este 34 Nordeste 0 -- -- --
2020-09-08 12:00:00 -- 22 Este 37 Este 0 -- -- --
2020-09-08 11:00:00 -- 19 Este 33 Nordeste 0 -- -- --
2020-09-08 10:00:00 -- 20 Este 42 Este 0 -- -- --
2020-09-08 09:00:00 -- 24 Este 41 Nordeste 0 -- -- --
2020-09-08 08:00:00 -- 22 Este 34 Este 0 -- -- --
2020-09-08 07:00:00 -- 24 Este 35 Nordeste 0 -- -- --
2020-09-08 06:00:00 -- 25 Este 39 Nordeste 0 -- -- --
2020-09-08 05:00:00 -- 24 Nordeste 38 Este 0 -- -- --
2020-09-08 04:00:00 -- 23 Nordeste 39 Nordeste 0 -- -- --
2020-09-08 03:00:00 -- 23 Nordeste 37 Nordeste 0 -- -- --
2020-09-08 02:00:00 -- 23 Nordeste 33 Nordeste 0 -- -- --
2020-09-08 01:00:00 -- 14 Este 26 Este 0 -- -- --
2020-09-08 00:00:00 -- 15 Este 28 Este 0 -- -- --
2020-09-07 23:00:00 -- 17 Este 26 Nordeste 0 -- -- --
2020-09-07 22:00:00 -- 14 Este 23 Este 0 -- -- --
2020-09-07 21:00:00 -- 17 Este 30 Este 0 -- -- --
2020-09-07 20:00:00 -- 14 Este 28 Nordeste 0 -- -- --
2020-09-07 19:00:00 -- 18 Este 28 Este 0 -- -- --
2020-09-07 18:00:00 -- 9 Este 26 Nordeste 0 -- -- --
2020-09-07 17:00:00 -- 10 Nordeste 24 Nordeste 0 -- -- --
2020-09-07 16:00:00 -- 9 Nordeste 25 Nordeste 0 -- -- --
2020-09-07 15:00:00 -- 13 Nordeste 24 Nordeste 0 -- -- --
2020-09-07 14:00:00 -- 10 Nordeste 25 Este 0 -- -- --
2020-09-07 13:00:00 -- 14 Nordeste 31 Este 0 -- -- --
2020-09-07 12:00:00 -- 21 Este 33 Este 0 -- -- --
2020-09-07 11:00:00 -- 20 Este 31 Nordeste 0 -- -- --
2020-09-07 10:00:00 -- 21 Este 31 Nordeste 0 -- -- --
2020-09-07 09:00:00 -- 17 Este 24 Nordeste 0 -- -- --
2020-09-07 08:00:00 -- 9 Nordeste 14 Este 0 -- -- --
2020-09-07 07:00:00 -- 3 Nordeste 7 Nordeste 0 -- -- --
2020-09-07 06:00:00 -- 4 Norte 8 Norte 0 -- -- --
2020-09-07 05:00:00 -- 6 Norte 16 Nordeste 0 -- -- --
2020-09-07 04:00:00 -- 7 Nordeste 18 Nordeste 0 -- -- --
2020-09-07 03:00:00 -- 11 Nordeste 21 Nordeste 0 -- -- --
2020-09-07 02:00:00 -- 12 Norte 19 Norte 0 -- -- --
2020-09-07 01:00:00 -- 12 Norte 21 Norte 0 -- -- --
2020-09-07 00:00:00 -- 10 Norte 23 Norte 0 -- -- --
2020-09-06 23:00:00 -- 10 Noroeste 17 Noroeste 0 -- -- --
2020-09-06 22:00:00 -- 5 Oeste 10 Noroeste 0 -- -- --
2020-09-06 21:00:00 -- 2 Noroeste 19 Oeste 0 -- -- --
2020-09-06 20:00:00 -- 8 Oeste 24 Oeste 0 -- -- --
2020-09-06 19:00:00 -- 9 Oeste 21 Sudoeste 0 -- -- --
2020-09-06 18:00:00 -- 4 Oeste 19 Sudoeste 0 -- -- --
2020-09-06 17:00:00 -- 5 Noroeste 18 Este 0 -- -- --
2020-09-06 16:00:00 -- 7 Nordeste 22 Este 0 -- -- --
2020-09-06 15:00:00 -- 10 Oeste 35 Norte 0 -- -- --
2020-09-06 14:00:00 -- 6 Oeste 14 Oeste 0 -- -- --
2020-09-06 13:00:00 -- 5 Sudoeste 14 Oeste 0 -- -- --
2020-09-06 12:00:00 -- 4 Sudoeste 14 Sudoeste 0 -- -- --
2020-09-06 11:00:00 -- 4 Sur 12 Nordeste 0 -- -- --
2020-09-06 10:00:00 -- 8 Nordeste 18 Nordeste 0 -- -- --
2020-09-06 09:00:00 -- 15 Nordeste 20 Nordeste 0 -- -- --
2020-09-06 08:00:00 -- 15 Nordeste 18 Nordeste 0 -- -- --
2020-09-06 07:00:00 -- 3 Nordeste 17 Nordeste 0 -- -- --
2020-09-06 06:00:00 -- 12 Nordeste 26 Nordeste 0 -- -- --
2020-09-06 05:00:00 -- 16 Este 28 Nordeste 0 -- -- --
2020-09-06 04:00:00 -- 15 Nordeste 27 Nordeste 0 -- -- --
2020-09-06 03:00:00 -- 18 Nordeste 26 Este 0 -- -- --
2020-09-06 02:00:00 -- 8 Nordeste 12 Este 0 -- -- --
2020-09-06 01:00:00 -- 8 Nordeste 18 Nordeste 0 -- -- --
2020-09-06 00:00:00 -- 7 Este 11 Este 0 -- -- --
2020-09-05 23:00:00 -- 7 Nordeste 10 Nordeste 0 -- -- --
2020-09-05 22:00:00 -- 7 Nordeste 10 Nordeste 0 -- -- --
2020-09-05 21:00:00 -- 6 Norte 7 Noroeste 0 -- -- --
2020-09-05 20:00:00 -- 4 Nordeste 14 Noroeste 0 -- -- --
2020-09-05 19:00:00 -- 8 Sudoeste 15 Oeste 0 -- -- --
2020-09-05 18:00:00 -- 9 Noroeste 16 Noroeste 0 -- -- --
2020-09-05 17:00:00 -- 4 Sur 20 Sudoeste 0 -- -- --
2020-09-05 16:00:00 -- 8 Sur 15 Sudoeste 0 -- -- --
2020-09-05 15:00:00 -- 8 Sur 17 Sudoeste 0 -- -- --
2020-09-05 14:00:00 -- 6 Sudoeste 15 Sur 0 -- -- --
2020-09-05 13:00:00 -- 5 Oeste 13 Oeste 0 -- -- --
2020-09-05 12:00:00 -- 4 Sudoeste 10 Sudoeste 0 -- -- --
2020-09-05 11:00:00 -- 3 Norte 12 Nordeste 0 -- -- --
2020-09-05 10:00:00 -- 7 Nordeste 17 Nordeste 0 -- -- --
2020-09-05 09:00:00 -- 8 Nordeste 19 Norte 0 -- -- --
2020-09-05 08:00:00 -- 9 Nordeste 17 Nordeste 0 -- -- --
2020-09-05 07:00:00 -- 5 Nordeste 21 Nordeste 0 -- -- --
2020-09-05 06:00:00 -- 18 Nordeste 24 Nordeste 0 -- -- --
2020-09-05 05:00:00 -- 12 Nordeste 19 Nordeste 0 -- -- --
2020-09-05 04:00:00 -- 12 Nordeste 21 Nordeste 0 -- -- --
2020-09-05 03:00:00 -- 4 Nordeste 5 Nordeste 0 -- -- --
2020-09-05 02:00:00 -- 2 Oeste 8 Nordeste 0 -- -- --
2020-09-05 01:00:00 -- 5 Nordeste 25 Nordeste 0 -- -- --
2020-09-05 00:00:00 -- 17 Nordeste 27 Nordeste 0 -- -- --
2020-09-04 23:00:00 -- 15 Este 23 Este 0 -- -- --
2020-09-04 22:00:00 -- 8 Nordeste 12 Este 0 -- -- --
2020-09-04 21:00:00 -- 7 Nordeste 13 Nordeste 0 -- -- --
2020-09-04 20:00:00 -- 9 Nordeste 19 Norte 0 -- -- --
2020-09-04 19:00:00 -- 10 Nordeste 22 Este 0 -- -- --
2020-09-04 18:00:00 -- 13 Este 28 Este 0 -- -- --
2020-09-04 17:00:00 -- 13 Nordeste 30 Norte 0 -- -- --
2020-09-04 16:00:00 -- 18 Nordeste 32 Este 0 -- -- --
2020-09-04 15:00:00 -- 19 Nordeste 33 Nordeste 0 -- -- --
2020-09-04 14:00:00 -- 18 Nordeste 33 Este 0 -- -- --
2020-09-04 13:00:00 -- 14 Nordeste 28 Nordeste 0 -- -- --
2020-09-04 12:00:00 -- 12 Nordeste 20 Nordeste 0 -- -- --
2020-09-04 11:00:00 -- 13 Nordeste 24 Nordeste 0 -- -- --
2020-09-04 10:00:00 -- 15 Este 22 Este 0 -- -- --
2020-09-04 09:00:00 -- 15 Nordeste 22 Nordeste 0 -- -- --
2020-09-04 08:00:00 -- 12 Nordeste 23 Nordeste 0 -- -- --
2020-09-04 07:00:00 -- 11 Nordeste 19 Este 0 -- -- --
2020-09-04 06:00:00 -- 9 Nordeste 17 Norte 0 -- -- --
2020-09-04 05:00:00 -- 9 Nordeste 12 Nordeste 0 -- -- --
2020-09-04 04:00:00 -- 3 Sudeste 12 Oeste 0 -- -- --
2020-09-04 03:00:00 -- 6 Este 21 Este 0 -- -- --
2020-09-04 02:00:00 -- 15 Este 29 Este 0 -- -- --
2020-09-04 01:00:00 -- 20 Este 31 Este 0 -- -- --
2020-09-04 00:00:00 -- 19 Este 32 Este 0 -- -- --
2020-09-03 23:00:00 -- 15 Este 23 Este 0 -- -- --
2020-09-03 22:00:00 -- 12 Nordeste 14 Nordeste 0 -- -- --
2020-09-03 21:00:00 -- 6 Nordeste 10 Norte 0 -- -- --
2020-09-03 20:00:00 -- 7 Nordeste 21 Nordeste 0 -- -- --
2020-09-03 19:00:00 -- 7 Norte 22 Nordeste 0 -- -- --
2020-09-03 18:00:00 -- 9 Este 19 Este 0 -- -- --
2020-09-03 17:00:00 -- 11 Nordeste 26 Nordeste 0 -- -- --
2020-09-03 16:00:00 -- 8 Norte 27 Este 0 -- -- --
2020-09-03 15:00:00 -- 12 Nordeste 27 Nordeste 0 -- -- --
2020-09-03 14:00:00 -- 9 Este 22 Este 0 -- -- --
2020-09-03 13:00:00 -- 9 Este 20 Este 0 -- -- --
2020-09-03 12:00:00 -- 9 Nordeste 14 Nordeste 0 -- -- --
2020-09-03 11:00:00 -- 8 Nordeste 14 Nordeste 0 -- -- --
2020-09-03 10:00:00 -- 8 Nordeste 19 Nordeste 0 -- -- --
2020-09-03 09:00:00 -- 8 Nordeste 16 Norte 0 -- -- --
2020-09-03 08:00:00 -- 10 Nordeste 18 Nordeste 0 -- -- --
2020-09-03 07:00:00 -- 3 Norte 12 Norte 0 -- -- --
2020-09-03 06:00:00 -- 8 Nordeste 17 Nordeste 0 -- -- --
2020-09-03 05:00:00 -- 10 Nordeste 17 Nordeste 0 -- -- --
2020-09-03 04:00:00 -- 7 Nordeste 22 Este 0 -- -- --
2020-09-03 03:00:00 -- 13 Este 18 Nordeste 0 -- -- --
2020-09-03 02:00:00 -- 10 Este 12 Este 0 -- -- --
2020-09-03 01:00:00 -- 4 Este 18 Nordeste 0 -- -- --
2020-09-03 00:00:00 -- 15 Nordeste 17 Nordeste 0 -- -- --
2020-09-02 23:00:00 -- 12 Nordeste 17 Nordeste 0 -- -- --
2020-09-02 22:00:00 -- 10 Este 14 Este 0 -- -- --
2020-09-02 21:00:00 -- 8 Este 9 Este 0 -- -- --
2020-09-02 20:00:00 -- 3 Norte 15 Nordeste 0 -- -- --
2020-09-02 19:00:00 -- 10 Este 22 Este 0 -- -- --
2020-09-02 18:00:00 -- 6 Nordeste 20 Nordeste 0 -- -- --
2020-09-02 17:00:00 -- 8 Sur 22 Sudeste 0 -- -- --
2020-09-02 16:00:00 -- 5 Oeste 21 Sudoeste 0 -- -- --
2020-09-02 15:00:00 -- 4 Sudeste 24 Este 0 -- -- --
2020-09-02 14:00:00 -- 12 Este 25 Este 0 -- -- --
2020-09-02 13:00:00 -- 14 Este 27 Este 0 -- -- --
2020-09-02 12:00:00 -- 13 Este 21 Este 0 -- -- --
2020-09-02 11:00:00 -- 12 Este 26 Este 0 -- -- --
2020-09-02 10:00:00 -- 12 Este 26 Nordeste 0 -- -- --
2020-09-02 09:00:00 -- 20 Este 31 Nordeste 0 -- -- --
2020-09-02 08:00:00 -- 19 Este 27 Este 0 -- -- --
2020-09-02 07:00:00 -- 17 Nordeste 26 Este 0 -- -- --
2020-09-02 06:00:00 -- 5 Nordeste 9 Nordeste 0 -- -- --
2020-09-02 05:00:00 -- 6 Nordeste 10 Nordeste 0 -- -- --
2020-09-02 04:00:00 -- 3 Nordeste 5 Noroeste 0 -- -- --
2020-09-02 03:00:00 -- 4 Noroeste 5 Noroeste 0 -- -- --
2020-09-02 02:00:00 -- 3 Noroeste 4 Norte 0 -- -- --
2020-09-02 01:00:00 -- 3 Noroeste 5 Norte 0 -- -- --
2020-09-02 00:00:00 -- 2 Nordeste 12 Sur 0 -- -- --
2020-09-01 23:00:00 -- 4 Norte 6 Noroeste 0 -- -- --
2020-09-01 22:00:00 -- 3 Noroeste 5 Noroeste 0 -- -- --
2020-09-01 21:00:00 -- 4 Oeste 13 Sudoeste 0 -- -- --
2020-09-01 20:00:00 -- 8 Oeste 26 Oeste 0 -- -- --
2020-09-01 19:00:00 -- 13 Sudoeste 23 Oeste 0 -- -- --
2020-09-01 18:00:00 -- 12 Oeste 22 Oeste 0 -- -- --
2020-09-01 17:00:00 -- 12 Oeste 21 Oeste 0 -- -- --
2020-09-01 16:00:00 -- 11 Sudoeste 23 Oeste 0 -- -- --
2020-09-01 15:00:00 -- 10 Oeste 19 Oeste 0 -- -- --
2020-09-01 14:00:00 -- 8 Oeste 18 Oeste 0 -- -- --
2020-09-01 13:00:00 -- 10 Oeste 18 Oeste 0 -- -- --
2020-09-01 12:00:00 -- 5 Este 18 Este 0 -- -- --
2020-09-01 11:00:00 -- 10 Este 14 Este 0 -- -- --
2020-09-01 10:00:00 -- 8 Este 18 Norte 0 -- -- --
2020-09-01 09:00:00 -- 5 Norte 13 Norte 0 -- -- --
2020-09-01 08:00:00 -- 5 Nordeste 12 Nordeste 0 -- -- --
2020-09-01 07:00:00 -- 7 Nordeste 14 Norte 0 -- -- --
2020-09-01 06:00:00 -- 4 Nordeste 17 Nordeste 0 -- -- --
2020-09-01 05:00:00 -- 13 Nordeste 20 Nordeste 0 -- -- --
2020-09-01 04:00:00 -- 14 Este 25 Este 0 -- -- --
2020-09-01 03:00:00 -- 15 Este 26 Este 0 -- -- --
2020-09-01 02:00:00 -- 16 Nordeste 22 Este 0 -- -- --
2020-09-01 01:00:00 -- 16 Nordeste 22 Este 0 -- -- --
2020-09-01 00:00:00 -- 14 Nordeste 21 Nordeste 0 -- -- --
2020-08-31 23:00:00 -- 8 Nordeste 12 Nordeste 0 -- -- --
2020-08-31 22:00:00 -- 9 Nordeste 12 Norte 0 -- -- --
2020-08-31 21:00:00 -- 7 Norte 13 Noroeste 0 -- -- --
2020-08-31 20:00:00 -- 7 Noroeste 15 Oeste 0 -- -- --
2020-08-31 19:00:00 -- 3 Sudoeste 13 Sudoeste 0 -- -- --
2020-08-31 18:00:00 -- 5 Sudoeste 16 Noroeste 0 -- -- --
2020-08-31 17:00:00 -- 5 Sudoeste 14 Sudoeste 0 -- -- --
2020-08-31 16:00:00 -- 4 Este 13 Noroeste 0 -- -- --
2020-08-31 15:00:00 -- 6 Noroeste 17 Nordeste 0 -- -- --
2020-08-31 14:00:00 -- 8 Sur 23 Este 0 -- -- --
2020-08-31 13:00:00 -- 10 Sudeste 25 Este 0 -- -- --
2020-08-31 12:00:00 -- 13 Este 24 Este 0 -- -- --
2020-08-31 11:00:00 -- 17 Este 30 Este 0 -- -- --
2020-08-31 10:00:00 -- 24 Este 33 Este 0 -- -- --
2020-08-31 09:00:00 -- 23 Este 39 Nordeste 0 -- -- --
2020-08-31 08:00:00 -- 24 Este 39 Este 0 -- -- --
2020-08-31 07:00:00 -- 26 Este 36 Este 0 -- -- --
2020-08-31 06:00:00 -- 23 Nordeste 33 Nordeste 0 -- -- --
2020-08-31 05:00:00 -- 12 Este 25 Este 0 -- -- --
2020-08-31 04:00:00 -- 16 Este 23 Este 0 -- -- --
2020-08-31 03:00:00 -- 16 Nordeste 20 Nordeste 0 -- -- --
2020-08-31 02:00:00 -- 15 Nordeste 17 Nordeste 0 -- -- --
2020-08-31 01:00:00 -- 13 Nordeste 17 Nordeste 0 -- -- --
2020-08-31 00:00:00 -- 13 Nordeste 18 Nordeste 0 -- -- --
2020-08-30 23:00:00 -- 12 Nordeste 17 Este 0 -- -- --
2020-08-30 22:00:00 -- 11 Este 18 Nordeste 0 -- -- --
2020-08-30 21:00:00 -- 10 Nordeste 15 Nordeste 0 -- -- --
2020-08-30 20:00:00 -- 9 Nordeste 19 Nordeste 0 -- -- --
2020-08-30 19:00:00 -- 6 Este 15 Norte 0 -- -- --
2020-08-30 18:00:00 -- 8 Este 17 Norte 0 -- -- --
2020-08-30 17:00:00 -- 9 Nordeste 22 Nordeste 0 -- -- --
2020-08-30 16:00:00 -- 6 Nordeste 24 Sudeste 0 -- -- --
2020-08-30 15:00:00 -- 8 Oeste 27 Oeste 0 -- -- --
2020-08-30 14:00:00 -- 7 Nordeste 21 Nordeste 0 -- -- --
2020-08-30 13:00:00 -- 12 Nordeste 29 Este 0 -- -- --
2020-08-30 12:00:00 -- 18 Este 28 Este 0 -- -- --
2020-08-30 11:00:00 -- 17 Nordeste 31 Este 0 -- -- --
2020-08-30 10:00:00 -- 17 Este 29 Este 0 -- -- --
2020-08-30 09:00:00 -- 14 Este 22 Nordeste 0 -- -- --
2020-08-30 08:00:00 -- 10 Nordeste 19 Nordeste 0 -- -- --
2020-08-30 07:00:00 -- 11 Nordeste 14 Nordeste 0 -- -- --
2020-08-30 06:00:00 -- 9 Nordeste 23 Este 0 -- -- --
2020-08-30 05:00:00 -- 11 Este 22 Este 0 -- -- --
2020-08-30 04:00:00 -- 13 Este 20 Este 0 -- -- --
2020-08-30 03:00:00 -- 13 Este 27 Este 0 -- -- --
2020-08-30 02:00:00 -- 13 Este 27 Nordeste 0 -- -- --
2020-08-30 01:00:00 -- 10 Nordeste 19 Norte 0 -- -- --
2020-08-30 00:00:00 -- 9 Norte 22 Nordeste 0 -- -- --
2020-08-29 23:00:00 -- 10 Norte 19 Norte 0 -- -- --
2020-08-29 22:00:00 -- 9 Norte 16 Nordeste 0 -- -- --
2020-08-29 21:00:00 -- 9 Nordeste 22 Nordeste 0 -- -- --
2020-08-29 20:00:00 -- 13 Norte 22 Norte 0 -- -- --
2020-08-29 19:00:00 -- 13 Norte 24 Nordeste 0 -- -- --
2020-08-29 18:00:00 -- 10 Norte 33 Norte 0 -- -- --
2020-08-29 17:00:00 -- 17 Norte 33 Nordeste 0 -- -- --
2020-08-29 16:00:00 -- 11 Noroeste 31 Nordeste 0 -- -- --
2020-08-29 15:00:00 -- 14 Nordeste 28 Noroeste 0 -- -- --
2020-08-29 14:00:00 -- 8 Nordeste 22 Norte 0 -- -- --
2020-08-29 13:00:00 -- 8 Nordeste 33 Norte 0 -- -- --
2020-08-29 12:00:00 -- 10 Nordeste 28 Nordeste 0 -- -- --
2020-08-29 11:00:00 -- 16 Nordeste 28 Nordeste 0 -- -- --
2020-08-29 10:00:00 -- 5 Sudoeste 10 Oeste 0 -- -- --
2020-08-29 09:00:00 -- 5 Oeste 7 Noroeste 0 -- -- --
2020-08-29 08:00:00 -- 0 Calma 7 Oeste 0 -- -- --
2020-08-29 07:00:00 -- 3 Oeste 9 Noroeste 0 -- -- --
2020-08-29 06:00:00 -- 7 Oeste 12 Sudoeste 0 -- -- --
2020-08-29 05:00:00 -- 0 Calma 10 Sudoeste 0 -- -- --
2020-08-29 04:00:00 -- 5 Sudoeste 22 Oeste 0 -- -- --
2020-08-29 03:00:00 -- 9 Oeste 33 Oeste 0 -- -- --
2020-08-29 02:00:00 -- 14 Oeste 30 Noroeste 0 -- -- --
2020-08-29 01:00:00 -- 8 Noroeste 23 Oeste 0 -- -- --
2020-08-29 00:00:00 -- 15 Oeste 23 Oeste 0 -- -- --
2020-08-28 23:00:00 -- 15 Oeste 28 Oeste 0 -- -- --
2020-08-28 22:00:00 -- 17 Oeste 31 Oeste 0 -- -- --
2020-08-28 21:00:00 -- 19 Oeste 41 Oeste 0 -- -- --
2020-08-28 20:00:00 -- 23 Oeste 40 Oeste 0 -- -- --
2020-08-28 19:00:00 -- 27 Oeste 44 Oeste 0 -- -- --
2020-08-28 18:00:00 -- 26 Oeste 43 Oeste 0 -- -- --
2020-08-28 17:00:00 -- 24 Oeste 42 Sudoeste 0 -- -- --
2020-08-28 16:00:00 -- 24 Oeste 43 Oeste 0 -- -- --
2020-08-28 15:00:00 -- 23 Oeste 39 Oeste 0 -- -- --
2020-08-28 14:00:00 -- 22 Oeste 37 Oeste 0 -- -- --
2020-08-28 13:00:00 -- 20 Oeste 33 Oeste 0 -- -- --
2020-08-28 12:00:00 -- 14 Oeste 27 Oeste 0 -- -- --
2020-08-28 11:00:00 -- 13 Oeste 23 Oeste 0 -- -- --
2020-08-28 10:00:00 -- 15 Oeste 22 Oeste 0 -- -- --
2020-08-28 09:00:00 -- 9 Oeste 13 Oeste 0 -- -- --
2020-08-28 08:00:00 -- 5 Oeste 10 Oeste 0 -- -- --
2020-08-28 07:00:00 -- 7 Oeste 9 Oeste 0 -- -- --
2020-08-28 06:00:00 -- 3 Oeste 5 Oeste 0 -- -- --
2020-08-28 05:00:00 -- 2 Sur 11 Oeste 0 -- -- --
2020-08-28 04:00:00 -- 5 Noroeste 8 Oeste 0 -- -- --
2020-08-28 03:00:00 -- 3 Oeste 6 Oeste 0 -- -- --
2020-08-28 02:00:00 -- 4 Oeste 10 Oeste 0 -- -- --
2020-08-28 01:00:00 -- 9 Oeste 17 Oeste 0 -- -- --
2020-08-28 00:00:00 -- 2 Oeste 5 Oeste 0 -- -- --
2020-08-27 23:00:00 -- 0 Calma 4 Noroeste 0 -- -- --
2020-08-27 22:00:00 -- 4 Noroeste 8 Oeste 0 -- -- --
2020-08-27 21:00:00 -- 7 Oeste 21 Noroeste 0 -- -- --
2020-08-27 20:00:00 -- 15 Noroeste 29 Noroeste 0 -- -- --
2020-08-27 19:00:00 -- 15 Noroeste 29 Noroeste 0 -- -- --
2020-08-27 18:00:00 -- 19 Oeste 34 Oeste 0 -- -- --
2020-08-27 17:00:00 -- 12 Oeste 31 Oeste 0 -- -- --
2020-08-27 16:00:00 -- 10 Sudoeste 27 Sudoeste 0 -- -- --
2020-08-27 15:00:00 -- 11 Oeste 26 Sudoeste 0 -- -- --
2020-08-27 14:00:00 -- 6 Oeste 21 Oeste 0 -- -- --
2020-08-27 13:00:00 -- 8 Oeste 17 Oeste 0 -- -- --
2020-08-27 12:00:00 -- 4 Sudoeste 12 Oeste 0 -- -- --
2020-08-27 11:00:00 -- 6 Oeste 12 Noroeste 0 -- -- --
2020-08-27 10:00:00 -- 4 Oeste 7 Oeste 0 -- -- --
2020-08-27 09:00:00 -- 0 Calma 2 Sur 0 -- -- --
2020-08-27 08:00:00 -- 3 Nordeste 4 Este 0 -- -- --
2020-08-27 07:00:00 -- 0 Calma -- -- 0 -- -- --
2020-08-27 06:00:00 -- 3 Este -- -- 0 -- -- --
2020-08-27 05:00:00 -- 0 Calma 8 Noroeste 0 -- -- --
2020-08-27 04:00:00 -- 6 Noroeste 9 Noroeste 0 -- -- --
2020-08-27 03:00:00 -- 4 Noroeste 5 Noroeste 0 -- -- --
2020-08-27 02:00:00 -- 3 Norte 4 Noroeste 0 -- -- --
2020-08-27 01:00:00 -- 2 Noroeste 4 Noroeste 0 -- -- --
2020-08-27 00:00:00 -- 3 Noroeste 12 Norte 0 -- -- --
2020-08-26 23:00:00 -- 9 Noroeste 18 Noroeste 0 -- -- --
2020-08-26 22:00:00 -- 12 Noroeste 22 Norte 0 -- -- --
2020-08-26 21:00:00 -- 14 Noroeste 24 Noroeste 0 -- -- --
2020-08-26 20:00:00 -- 16 Noroeste 27 Noroeste 0 -- -- --
2020-08-26 19:00:00 -- 14 Oeste 30 Oeste 0 -- -- --
2020-08-26 18:00:00 -- 16 Oeste 32 Oeste 0 -- -- --
2020-08-26 17:00:00 -- 8 Sudoeste 28 Oeste 0 -- -- --
2020-08-26 16:00:00 -- 6 Sudoeste 27 Oeste 0 -- -- --
2020-08-26 15:00:00 -- 9 Oeste 20 Oeste 0 -- -- --
2020-08-26 14:00:00 -- 10 Oeste 25 Oeste 0 -- -- --
2020-08-26 13:00:00 -- 8 Oeste 17 Oeste 0 -- -- --
2020-08-26 12:00:00 -- 5 Oeste 12 Oeste 0 -- -- --
2020-08-26 11:00:00 -- 5 Oeste 10 Oeste 0 -- -- --
2020-08-26 10:00:00 -- 4 Oeste 6 Oeste 0 -- -- --
2020-08-26 09:00:00 -- 2 Noroeste 3 Norte 0 -- -- --
2020-08-26 08:00:00 -- 3 Nordeste 4 Nordeste 0 -- -- --
2020-08-26 07:00:00 -- 0 Calma 2 Noroeste 0 -- -- --
2020-08-26 06:00:00 -- 0 Calma 3 Noroeste 0 -- -- --
2020-08-26 05:00:00 -- 0 Calma 4 Nordeste 0 -- -- --
2020-08-26 04:00:00 -- 2 Norte 4 Norte 0 -- -- --
2020-08-26 03:00:00 -- 3 Norte 5 Nordeste 0 -- -- --
2020-08-26 02:00:00 -- 3 Nordeste 4 Nordeste 0 -- -- --
2020-08-26 01:00:00 -- 0 Calma 14 Noroeste 0 -- -- --
2020-08-26 00:00:00 -- 9 Norte 12 Norte 0 -- -- --
2020-08-25 23:00:00 -- 8 Noroeste 16 Noroeste 0 -- -- --
2020-08-25 22:00:00 -- 9 Noroeste 12 Noroeste 0 -- -- --
2020-08-25 21:00:00 -- 6 Noroeste 16 Oeste 0 -- -- --
2020-08-25 20:00:00 -- 11 Oeste 21 Oeste 0 -- -- --
2020-08-25 19:00:00 -- 12 Oeste 22 Noroeste 0 -- -- --
2020-08-25 18:00:00 -- 10 Sudoeste 26 Noroeste 0 -- -- --
2020-08-25 17:00:00 -- 8 Sudoeste 29 Oeste 0 -- -- --
2020-08-25 16:00:00 -- 7 Oeste 22 Oeste 0 -- -- --
2020-08-25 15:00:00 -- 9 Oeste 26 Oeste 0 -- -- --
2020-08-25 14:00:00 -- 8 Oeste 23 Oeste 0 -- -- --
2020-08-25 13:00:00 -- 6 Sur 14 Oeste 0 -- -- --
2020-08-25 12:00:00 -- 6 Sur 14 Sur 0 -- -- --
2020-08-25 11:00:00 -- 4 Sudoeste 10 Sur 0 -- -- --
2020-08-25 10:00:00 -- 4 Sur 7 Sudeste 0 -- -- --
2020-08-25 09:00:00 -- 0 Calma 3 Noroeste 0 -- -- --
2020-08-25 08:00:00 -- 2 Oeste 3 Oeste 0 -- -- --
2020-08-25 07:00:00 -- 0 Calma 3 Noroeste 0 -- -- --
2020-08-25 06:00:00 -- 0 Calma 5 Oeste 0 -- -- --
2020-08-25 05:00:00 -- 4 Noroeste 6 Noroeste 0 -- -- --
2020-08-25 04:00:00 -- 2 Norte 4 Norte 0 -- -- --
2020-08-25 03:00:00 -- 0 Calma 2 Noroeste 0 -- -- --
2020-08-25 02:00:00 -- 0 Calma 6 Nordeste 0 -- -- --
2020-08-25 01:00:00 -- 4 Nordeste 13 Sur 0 -- -- --
2020-08-25 00:00:00 -- 6 Noroeste 17 Sur 0 -- -- --
2020-08-24 23:00:00 -- 8 Norte 11 Noroeste 0 -- -- --
2020-08-24 22:00:00 -- 6 Noroeste 9 Noroeste 0 -- -- --
2020-08-24 21:00:00 -- 4 Noroeste 16 Noroeste 0 -- -- --
2020-08-24 20:00:00 -- 13 Oeste 19 Oeste 0 -- -- --
2020-08-24 19:00:00 -- 12 Oeste 21 Sudoeste 0 -- -- --
2020-08-24 18:00:00 -- 10 Oeste 26 Oeste 0 -- -- --
2020-08-24 17:00:00 -- 4 Sudoeste 24 Oeste 0 -- -- --
2020-08-24 16:00:00 -- 12 Noroeste 22 Oeste 0 -- -- --
2020-08-24 15:00:00 -- 10 Oeste 25 Oeste 0 -- -- --
2020-08-24 14:00:00 -- 5 Noroeste 19 Oeste 0 -- -- --
2020-08-24 13:00:00 -- 6 Sudoeste 14 Noroeste 0 -- -- --
2020-08-24 12:00:00 -- 6 Sudeste 11 Sudeste 0 -- -- --
2020-08-24 11:00:00 -- 6 Sudeste 12 Sudeste 0 -- -- --
2020-08-24 10:00:00 -- 6 Nordeste 12 Nordeste 0 -- -- --
2020-08-24 09:00:00 -- 3 Oeste 9 Norte 0 -- -- --
2020-08-24 08:00:00 -- 3 Nordeste 13 Nordeste 0 -- -- --
2020-08-24 07:00:00 -- 13 Nordeste 20 Nordeste 0 -- -- --
2020-08-24 06:00:00 -- 5 Nordeste 9 Nordeste 0 -- -- --
2020-08-24 05:00:00 -- 4 Nordeste 6 Nordeste 0 -- -- --
2020-08-24 04:00:00 -- 3 Norte 7 Norte 0 -- -- --
2020-08-24 03:00:00 -- 3 Nordeste 6 Nordeste 0 -- -- --
2020-08-24 02:00:00 -- 3 Sudeste 6 Sur 0 -- -- --
2020-08-24 01:00:00 -- 8 Norte 18 Norte 0 -- -- --
2020-08-24 00:00:00 -- 8 Noroeste 12 Norte 0 -- -- --
2020-08-23 23:00:00 -- 4 Noroeste 6 Noroeste 0 -- -- --
2020-08-23 22:00:00 -- 5 Noroeste 12 Oeste 0 -- -- --
2020-08-23 21:00:00 -- 9 Oeste 23 Noroeste 0 -- -- --
2020-08-23 20:00:00 -- 14 Oeste 22 Oeste 0 -- -- --
2020-08-23 19:00:00 -- 11 Oeste 27 Oeste 0 -- -- --
2020-08-23 18:00:00 -- 13 Oeste 23 Oeste 0 -- -- --
2020-08-23 17:00:00 -- 9 Oeste 28 Oeste 0 -- -- --
2020-08-23 16:00:00 -- 11 Noroeste 25 Oeste 0 -- -- --
2020-08-23 15:00:00 -- 12 Oeste 24 Oeste 0 -- -- --
2020-08-23 14:00:00 -- 9 Sudoeste 17 Oeste 0 -- -- --
2020-08-23 13:00:00 -- 6 Sudoeste 14 Este 0 -- -- --
2020-08-23 12:00:00 -- 7 Sudeste 13 Nordeste 0 -- -- --
2020-08-23 11:00:00 -- 8 Nordeste 14 Nordeste 0 -- -- --
2020-08-23 10:00:00 -- 5 Nordeste 12 Nordeste 0 -- -- --
2020-08-23 09:00:00 -- 5 Norte 9 Norte 0 -- -- --
2020-08-23 08:00:00 -- 2 Norte 8 Nordeste 0 -- -- --
2020-08-23 07:00:00 -- 2 Norte 7 Nordeste 0 -- -- --
2020-08-23 06:00:00 -- 4 Nordeste 6 Nordeste 0 -- -- --
2020-08-23 05:00:00 -- 4 Nordeste 5 Nordeste 0 -- -- --
2020-08-23 04:00:00 -- 3 Nordeste 8 Nordeste 0 -- -- --
2020-08-23 03:00:00 -- 4 Este 6 Sudeste 0 -- -- --
2020-08-23 02:00:00 -- 3 Sudeste 15 Norte 0 -- -- --
2020-08-23 01:00:00 -- 10 Norte 17 Noroeste 0 -- -- --
2020-08-23 00:00:00 -- 5 Noroeste 9 Noroeste 0 -- -- --